Pinconning, MI

7:41 PM EST on December 17, 2014 (GMT -0500)
MBS International | Change Station
CLOSE
Current Station
Airport
Location: Saginaw,
Elevation: 669 ft
Nearby Weather Stations

Elev 669 ft 43.53 °N, 84.08 °W | Updated 48 minutes ago

Overcast
Overcast
29 °F
Feels Like 17 °F
N
16
Wind Variable Wind from WSW
Gusts 23 mph

Today
High -- | Low -- °F
--% Chance of Precip.
Yesterday
High -- | Low -- °F
Precip. -- in
8:04 AM 4:59 PM
Waning Crescent, 18% visible
Pressure 30.12 in
Visibility 10.0 miles
Clouds Few 2500 ft
Mostly Cloudy 6500 ft
Overcast 9000 ft
Windchill 17 °F
Dew Point 21 °F
Humidity 72%
Rainfall 0.00 in
Snow Depth Not available.
UV 0 out of 12
Pollen .10 out of 12
Air Quality Not available.
Flu Activity Not available.
METAR KMBS 172353Z 25014G20KT 10SM FEW025 BKN065 OVC090 M02/M06 A3010 RMK AO2 SLP199 T10171061 10000 21017 52016

More Conditions Fewer Conditions

Pressure 30.12 in
Visibility 10.0 miles
Clouds Few 2500 ft
Mostly Cloudy 6500 ft
Overcast 9000 ft
Windchill 17 °F
Dew Point 21 °F
Humidity 72%
Rainfall 0.00 in
Snow Depth Not available.
UV 0 out of 12
Pollen .10 out of 12
Air Quality Not available.
Flu Activity Not available.
METAR KMBS 172353Z 25014G20KT 10SM FEW025 BKN065 OVC090 M02/M06 A3010 RMK AO2 SLP199 T10171061 10000 21017 52016

More Conditions Fewer Conditions

10-Day Weather Forecast

Almanac

Astronomy

Dec. 17, 2014 Rise Set
Actual Time
Civil Twilight
Nautical Twilight
Astronomical Twilight
Moon
Length of Visible Light
Length of Day
Tomorrow will be .
, % of the Moon is Illuminated

Today's Extremes

State Highs State Lows

Community

WunderPhotos

Upload Photos

1,778,837 photos uploaded!

WunderBlogs® & News

Nearby

Air Quality

  Air Quality AQ Index Pollutant
Not available.

Snow Depth

Station Depth Elevation

Earthquake Activity

City Distance Mag. Time & Date
Minimum magnitude displayed is 2.5.

Coastal Water Temperatures

Place Temperature

Nearby Weather Stations